Thai Dawn — V7EO6 — position and weather

sailwx.info

Track history (hours):
 
Tides and Currents Weather Stations Pressure Air Temp Water Temp Dewpoint Dewpoint Depression Visibility Wind Speed Wind Dir Waves Ship Positions

Thai Dawn

Last reported at 2017-Jun-08 04:05 UTC. Time now 2017-Aug-19 13:16 UTC.
Position N 25°25' W 079°30'.
Warning: this ship's position is months out of date.

Length 169 m; draft 6.1 m.

Type: Cargo ship. MMSI: 538001841.

Date/timePositionNaut miles runAvg speedWind from/ knotsBaromVisibWave heightAir tempDewpointWater temp
2017-Jun-08 04:05N 25°25' W 079°30'211.8
2017-Jun-08 03:54N 25°28' W 079°30'511.6
2017-Jun-08 03:30N 25°32' W 079°29'611.3
2017-Jun-08 02:59N 25°38' W 079°29'511.2
2017-Jun-08 02:30N 25°43' W 079°28'611.1
2017-Jun-08 02:00N 25°49' W 079°27'611.2
2017-Jun-08 01:26N 25°55' W 079°27'711.4
2017-Jun-08 00:48N 26°02' W 079°26'311.5
2017-Jun-08 00:30N 26°06' W 079°25'611.5
2017-Jun-08 00:00N 26°11' W 079°24'611.6
2017-Jun-07 23:30N 26°17' W 079°24'  
Track history (hours):
 
Tides and Currents Weather Stations Pressure Air Temp Water Temp Dewpoint Dewpoint Depression Visibility Wind Speed Wind Dir Waves Ship Positions

Thai Dawn

Last reported at 2017-Jun-08 04:05 UTC. Time now 2017-Aug-19 13:16 UTC.
Position N 25°25' W 079°30'.
Warning: this ship's position is months out of date.

Length 169 m; draft 6.1 m.

Type: Cargo ship. MMSI: 538001841.

Date/timePositionNaut miles runAvg speedWind from/ knotsBaromVisibWave heightAir tempDewpointWater temp
2017-Jun-08 04:05N 25°25' W 079°30'211.8
2017-Jun-08 03:54N 25°28' W 079°30'511.6
2017-Jun-08 03:30N 25°32' W 079°29'611.3
2017-Jun-08 02:59N 25°38' W 079°29'511.2
2017-Jun-08 02:30N 25°43' W 079°28'611.1
2017-Jun-08 02:00N 25°49' W 079°27'611.2
2017-Jun-08 01:26N 25°55' W 079°27'711.4
2017-Jun-08 00:48N 26°02' W 079°26'311.5
2017-Jun-08 00:30N 26°06' W 079°25'611.5
2017-Jun-08 00:00N 26°11' W 079°24'611.6
2017-Jun-07 23:30N 26°17' W 079°24'  

Dump ship's entire track history